sensor_id;sensor_type;location;lat;lon;timestamp;P1;durP1;ratioP1;P2;durP2;ratioP2
47866;SDS011;33628;50.806;11.586;2023-04-15T00:00:20;9.63;;;8.63;;
47866;SDS011;33628;50.806;11.586;2023-04-15T00:02:47;11.95;;;8.88;;
47866;SDS011;33628;50.806;11.586;2023-04-15T00:05:15;10.35;;;8.30;;
47866;SDS011;33628;50.806;11.586;2023-04-15T00:07:41;10.98;;;8.68;;
47866;SDS011;33628;50.806;11.586;2023-04-15T00:10:08;11.82;;;8.73;;
47866;SDS011;33628;50.806;11.586;2023-04-15T00:12:35;10.80;;;8.45;;
47866;SDS011;33628;50.806;11.586;2023-04-15T00:15:02;11.38;;;8.80;;
47866;SDS011;33628;50.806;11.586;2023-04-15T00:17:29;12.73;;;9.00;;
47866;SDS011;33628;50.806;11.586;2023-04-15T00:19:56;12.30;;;9.40;;
47866;SDS011;33628;50.806;11.586;2023-04-15T00:22:26;14.45;;;9.32;;
47866;SDS011;33628;50.806;11.586;2023-04-15T00:24:52;11.98;;;8.95;;
47866;SDS011;33628;50.806;11.586;2023-04-15T00:27:19;11.05;;;9.07;;
47866;SDS011;33628;50.806;11.586;2023-04-15T00:29:46;11.27;;;9.50;;
47866;SDS011;33628;50.806;11.586;2023-04-15T00:32:12;14.10;;;9.73;;
47866;SDS011;33628;50.806;11.586;2023-04-15T00:34:40;12.73;;;9.57;;
47866;SDS011;33628;50.806;11.586;2023-04-15T00:37:07;12.90;;;9.75;;
47866;SDS011;33628;50.806;11.586;2023-04-15T00:39:36;12.27;;;9.80;;
47866;SDS011;33628;50.806;11.586;2023-04-15T00:42:03;13.15;;;9.70;;
47866;SDS011;33628;50.806;11.586;2023-04-15T00:44:30;13.90;;;10.10;;
47866;SDS011;33628;50.806;11.586;2023-04-15T00:46:58;12.25;;;10.20;;
47866;SDS011;33628;50.806;11.586;2023-04-15T00:49:25;14.75;;;9.48;;
47866;SDS011;33628;50.806;11.586;2023-04-15T00:51:53;13.02;;;10.05;;
47866;SDS011;33628;50.806;11.586;2023-04-15T00:54:20;12.50;;;10.48;;
47866;SDS011;33628;50.806;11.586;2023-04-15T00:56:48;12.65;;;10.13;;
47866;SDS011;33628;50.806;11.586;2023-04-15T00:59:15;12.98;;;9.45;;
47866;SDS011;33628;50.806;11.586;2023-04-15T01:01:42;12.20;;;10.82;;
47866;SDS011;33628;50.806;11.586;2023-04-15T01:04:10;12.98;;;10.07;;
47866;SDS011;33628;50.806;11.586;2023-04-15T01:06:37;13.57;;;10.75;;
47866;SDS011;33628;50.806;11.586;2023-04-15T01:09:04;13.57;;;10.80;;
47866;SDS011;33628;50.806;11.586;2023-04-15T01:11:31;11.45;;;10.02;;
47866;SDS011;33628;50.806;11.586;2023-04-15T01:14:01;14.30;;;10.27;;
47866;SDS011;33628;50.806;11.586;2023-04-15T01:16:28;11.98;;;9.90;;
47866;SDS011;33628;50.806;11.586;2023-04-15T01:18:55;12.25;;;10.38;;
47866;SDS011;33628;50.806;11.586;2023-04-15T01:21:22;12.73;;;10.07;;
47866;SDS011;33628;50.806;11.586;2023-04-15T01:23:49;12.43;;;10.00;;
47866;SDS011;33628;50.806;11.586;2023-04-15T01:26:18;15.43;;;10.73;;
47866;SDS011;33628;50.806;11.586;2023-04-15T01:28:46;13.85;;;9.75;;
47866;SDS011;33628;50.806;11.586;2023-04-15T01:31:14;13.38;;;10.13;;
47866;SDS011;33628;50.806;11.586;2023-04-15T01:33:41;13.48;;;9.65;;
47866;SDS011;33628;50.806;11.586;2023-04-15T01:36:09;11.23;;;8.70;;
47866;SDS011;33628;50.806;11.586;2023-04-15T01:38:36;10.98;;;8.80;;
47866;SDS011;33628;50.806;11.586;2023-04-15T01:41:03;13.57;;;9.38;;
47866;SDS011;33628;50.806;11.586;2023-04-15T01:43:33;10.48;;;8.57;;
47866;SDS011;33628;50.806;11.586;2023-04-15T01:46:02;9.85;;;8.40;;
47866;SDS011;33628;50.806;11.586;2023-04-15T01:48:28;9.70;;;8.48;;
47866;SDS011;33628;50.806;11.586;2023-04-15T01:50:55;11.30;;;8.40;;
47866;SDS011;33628;50.806;11.586;2023-04-15T01:53:22;11.30;;;9.18;;
47866;SDS011;33628;50.806;11.586;2023-04-15T01:55:50;10.35;;;8.57;;
47866;SDS011;33628;50.806;11.586;2023-04-15T01:58:17;9.75;;;8.05;;
47866;SDS011;33628;50.806;11.586;2023-04-15T02:00:45;11.15;;;8.38;;
47866;SDS011;33628;50.806;11.586;2023-04-15T02:03:12;12.07;;;8.65;;
47866;SDS011;33628;50.806;11.586;2023-04-15T02:05:38;11.15;;;8.05;;
47866;SDS011;33628;50.806;11.586;2023-04-15T02:08:05;11.07;;;8.25;;
47866;SDS011;33628;50.806;11.586;2023-04-15T02:10:31;11.75;;;8.35;;
47866;SDS011;33628;50.806;11.586;2023-04-15T02:12:58;9.70;;;8.35;;
47866;SDS011;33628;50.806;11.586;2023-04-15T02:15:27;9.73;;;8.40;;
47866;SDS011;33628;50.806;11.586;2023-04-15T02:17:55;12.68;;;8.38;;
47866;SDS011;33628;50.806;11.586;2023-04-15T02:20:24;11.30;;;9.02;;
47866;SDS011;33628;50.806;11.586;2023-04-15T02:22:50;9.80;;;8.63;;
47866;SDS011;33628;50.806;11.586;2023-04-15T02:25:17;11.63;;;9.02;;
47866;SDS011;33628;50.806;11.586;2023-04-15T02:27:43;10.65;;;8.90;;
47866;SDS011;33628;50.806;11.586;2023-04-15T02:30:10;11.23;;;8.75;;
47866;SDS011;33628;50.806;11.586;2023-04-15T02:32:37;10.90;;;8.82;;
47866;SDS011;33628;50.806;11.586;2023-04-15T02:35:06;10.43;;;8.48;;
47866;SDS011;33628;50.806;11.586;2023-04-15T02:37:34;12.40;;;9.23;;
47866;SDS011;33628;50.806;11.586;2023-04-15T02:40:07;12.20;;;8.27;;
47866;SDS011;33628;50.806;11.586;2023-04-15T02:42:35;11.85;;;8.70;;
47866;SDS011;33628;50.806;11.586;2023-04-15T02:45:01;10.27;;;8.00;;
47866;SDS011;33628;50.806;11.586;2023-04-15T02:47:32;11.80;;;7.38;;
47866;SDS011;33628;50.806;11.586;2023-04-15T02:49:59;10.63;;;7.90;;
47866;SDS011;33628;50.806;11.586;2023-04-15T02:52:29;11.13;;;8.07;;
47866;SDS011;33628;50.806;11.586;2023-04-15T02:54:56;13.40;;;8.38;;
47866;SDS011;33628;50.806;11.586;2023-04-15T02:57:25;9.90;;;8.15;;
47866;SDS011;33628;50.806;11.586;2023-04-15T02:59:55;12.13;;;8.68;;
47866;SDS011;33628;50.806;11.586;2023-04-15T03:02:22;12.75;;;9.10;;
47866;SDS011;33628;50.806;11.586;2023-04-15T03:04:48;10.32;;;7.88;;
47866;SDS011;33628;50.806;11.586;2023-04-15T03:07:16;9.60;;;7.90;;
47866;SDS011;33628;50.806;11.586;2023-04-15T03:09:44;9.63;;;7.43;;
47866;SDS011;33628;50.806;11.586;2023-04-15T03:12:12;11.73;;;8.27;;
47866;SDS011;33628;50.806;11.586;2023-04-15T03:14:39;12.70;;;9.18;;
47866;SDS011;33628;50.806;11.586;2023-04-15T03:17:06;12.32;;;9.27;;
47866;SDS011;33628;50.806;11.586;2023-04-15T03:19:33;9.95;;;8.50;;
47866;SDS011;33628;50.806;11.586;2023-04-15T03:22:00;11.60;;;8.95;;
47866;SDS011;33628;50.806;11.586;2023-04-15T03:24:26;11.75;;;8.75;;
47866;SDS011;33628;50.806;11.586;2023-04-15T03:26:57;10.07;;;8.27;;
47866;SDS011;33628;50.806;11.586;2023-04-15T03:29:24;12.00;;;8.75;;
47866;SDS011;33628;50.806;11.586;2023-04-15T03:31:51;10.90;;;8.10;;
47866;SDS011;33628;50.806;11.586;2023-04-15T03:34:18;13.25;;;8.80;;
47866;SDS011;33628;50.806;11.586;2023-04-15T03:36:45;10.63;;;8.52;;
47866;SDS011;33628;50.806;11.586;2023-04-15T03:39:12;12.93;;;9.48;;
47866;SDS011;33628;50.806;11.586;2023-04-15T03:41:39;11.98;;;8.80;;
47866;SDS011;33628;50.806;11.586;2023-04-15T03:44:07;11.25;;;9.10;;
47866;SDS011;33628;50.806;11.586;2023-04-15T03:46:33;11.27;;;9.32;;
47866;SDS011;33628;50.806;11.586;2023-04-15T03:49:00;14.10;;;9.40;;
47866;SDS011;33628;50.806;11.586;2023-04-15T03:51:27;13.40;;;9.80;;
47866;SDS011;33628;50.806;11.586;2023-04-15T03:53:54;12.10;;;9.10;;
47866;SDS011;33628;50.806;11.586;2023-04-15T03:56:20;13.98;;;9.43;;
47866;SDS011;33628;50.806;11.586;2023-04-15T03:58:47;10.95;;;8.43;;
47866;SDS011;33628;50.806;11.586;2023-04-15T04:01:15;10.77;;;8.40;;
47866;SDS011;33628;50.806;11.586;2023-04-15T04:03:42;11.43;;;8.23;;
47866;SDS011;33628;50.806;11.586;2023-04-15T04:06:08;10.40;;;8.63;;
47866;SDS011;33628;50.806;11.586;2023-04-15T04:08:37;12.15;;;8.65;;
47866;SDS011;33628;50.806;11.586;2023-04-15T04:11:04;12.93;;;9.15;;
47866;SDS011;33628;50.806;11.586;2023-04-15T04:13:30;13.40;;;8.70;;
47866;SDS011;33628;50.806;11.586;2023-04-15T04:15:57;12.88;;;8.18;;
47866;SDS011;33628;50.806;11.586;2023-04-15T04:18:25;10.77;;;8.25;;
47866;SDS011;33628;50.806;11.586;2023-04-15T04:20:51;12.13;;;9.10;;
47866;SDS011;33628;50.806;11.586;2023-04-15T04:23:18;13.38;;;9.02;;
47866;SDS011;33628;50.806;11.586;2023-04-15T04:25:44;13.20;;;8.95;;
47866;SDS011;33628;50.806;11.586;2023-04-15T04:28:11;12.68;;;8.68;;
47866;SDS011;33628;50.806;11.586;2023-04-15T04:30:38;13.98;;;8.82;;
47866;SDS011;33628;50.806;11.586;2023-04-15T04:33:05;11.25;;;8.52;;
47866;SDS011;33628;50.806;11.586;2023-04-15T04:35:33;12.63;;;8.63;;
47866;SDS011;33628;50.806;11.586;2023-04-15T04:38:02;14.15;;;9.95;;
47866;SDS011;33628;50.806;11.586;2023-04-15T04:40:31;14.82;;;9.02;;
47866;SDS011;33628;50.806;11.586;2023-04-15T04:42:58;14.85;;;9.15;;
47866;SDS011;33628;50.806;11.586;2023-04-15T04:45:25;14.50;;;10.27;;
47866;SDS011;33628;50.806;11.586;2023-04-15T04:47:51;14.57;;;9.75;;
47866;SDS011;33628;50.806;11.586;2023-04-15T04:50:18;12.82;;;10.05;;
47866;SDS011;33628;50.806;11.586;2023-04-15T04:52:47;14.00;;;9.13;;
47866;SDS011;33628;50.806;11.586;2023-04-15T04:55:13;13.80;;;9.48;;
47866;SDS011;33628;50.806;11.586;2023-04-15T04:57:40;12.98;;;9.82;;
47866;SDS011;33628;50.806;11.586;2023-04-15T05:00:07;16.90;;;9.10;;
47866;SDS011;33628;50.806;11.586;2023-04-15T05:02:35;12.70;;;9.63;;
47866;SDS011;33628;50.806;11.586;2023-04-15T05:05:01;12.48;;;9.25;;
47866;SDS011;33628;50.806;11.586;2023-04-15T05:07:28;11.82;;;9.15;;
47866;SDS011;33628;50.806;11.586;2023-04-15T05:09:56;13.35;;;9.57;;
47866;SDS011;33628;50.806;11.586;2023-04-15T05:12:23;11.15;;;8.52;;
47866;SDS011;33628;50.806;11.586;2023-04-15T05:14:50;13.80;;;9.50;;
47866;SDS011;33628;50.806;11.586;2023-04-15T05:17:17;12.48;;;9.23;;
47866;SDS011;33628;50.806;11.586;2023-04-15T05:19:44;13.30;;;9.77;;
47866;SDS011;33628;50.806;11.586;2023-04-15T05:22:10;14.32;;;9.85;;
47866;SDS011;33628;50.806;11.586;2023-04-15T05:24:37;12.73;;;9.25;;
47866;SDS011;33628;50.806;11.586;2023-04-15T05:27:05;12.30;;;9.40;;
47866;SDS011;33628;50.806;11.586;2023-04-15T05:29:33;12.63;;;9.32;;
47866;SDS011;33628;50.806;11.586;2023-04-15T05:31:59;12.60;;;9.45;;
47866;SDS011;33628;50.806;11.586;2023-04-15T05:34:26;11.90;;;9.55;;
47866;SDS011;33628;50.806;11.586;2023-04-15T05:36:53;11.93;;;9.40;;
47866;SDS011;33628;50.806;11.586;2023-04-15T05:39:19;13.38;;;10.07;;
47866;SDS011;33628;50.806;11.586;2023-04-15T05:41:46;11.48;;;8.32;;
47866;SDS011;33628;50.806;11.586;2023-04-15T05:44:14;14.73;;;9.48;;
47866;SDS011;33628;50.806;11.586;2023-04-15T05:46:40;12.57;;;9.00;;
47866;SDS011;33628;50.806;11.586;2023-04-15T05:49:08;12.02;;;8.90;;
47866;SDS011;33628;50.806;11.586;2023-04-15T05:51:34;11.70;;;9.10;;
47866;SDS011;33628;50.806;11.586;2023-04-15T05:54:01;13.88;;;9.70;;
47866;SDS011;33628;50.806;11.586;2023-04-15T05:56:30;11.77;;;8.88;;
47866;SDS011;33628;50.806;11.586;2023-04-15T05:58:59;12.82;;;9.65;;
47866;SDS011;33628;50.806;11.586;2023-04-15T06:01:27;13.82;;;10.55;;
47866;SDS011;33628;50.806;11.586;2023-04-15T06:03:58;13.90;;;10.63;;
47866;SDS011;33628;50.806;11.586;2023-04-15T06:06:25;14.20;;;10.15;;
47866;SDS011;33628;50.806;11.586;2023-04-15T06:08:52;16.40;;;10.75;;
47866;SDS011;33628;50.806;11.586;2023-04-15T06:11:20;15.88;;;11.30;;
47866;SDS011;33628;50.806;11.586;2023-04-15T06:13:47;16.85;;;12.32;;
47866;SDS011;33628;50.806;11.586;2023-04-15T06:16:14;19.45;;;13.65;;
47866;SDS011;33628;50.806;11.586;2023-04-15T06:18:43;20.10;;;13.50;;
47866;SDS011;33628;50.806;11.586;2023-04-15T06:21:09;22.33;;;16.38;;
47866;SDS011;33628;50.806;11.586;2023-04-15T06:23:36;23.15;;;15.52;;
47866;SDS011;33628;50.806;11.586;2023-04-15T06:26:03;25.17;;;15.73;;
47866;SDS011;33628;50.806;11.586;2023-04-15T06:28:29;22.05;;;15.10;;
47866;SDS011;33628;50.806;11.586;2023-04-15T06:30:56;24.80;;;15.90;;
47866;SDS011;33628;50.806;11.586;2023-04-15T06:33:23;25.25;;;16.75;;
47866;SDS011;33628;50.806;11.586;2023-04-15T06:35:51;25.10;;;17.05;;
47866;SDS011;33628;50.806;11.586;2023-04-15T06:38:17;26.88;;;17.30;;
47866;SDS011;33628;50.806;11.586;2023-04-15T06:40:44;26.33;;;16.52;;
47866;SDS011;33628;50.806;11.586;2023-04-15T06:43:11;28.15;;;17.40;;
47866;SDS011;33628;50.806;11.586;2023-04-15T06:45:38;30.55;;;20.13;;
47866;SDS011;33628;50.806;11.586;2023-04-15T06:48:05;32.90;;;19.42;;
47866;SDS011;33628;50.806;11.586;2023-04-15T06:50:32;27.50;;;19.25;;
47866;SDS011;33628;50.806;11.586;2023-04-15T06:53:00;25.23;;;17.75;;
47866;SDS011;33628;50.806;11.586;2023-04-15T06:55:27;28.40;;;18.95;;
47866;SDS011;33628;50.806;11.586;2023-04-15T06:57:54;27.55;;;18.13;;
47866;SDS011;33628;50.806;11.586;2023-04-15T07:00:21;24.55;;;16.80;;
47866;SDS011;33628;50.806;11.586;2023-04-15T07:02:47;27.65;;;18.55;;
47866;SDS011;33628;50.806;11.586;2023-04-15T07:05:14;25.67;;;17.27;;
47866;SDS011;33628;50.806;11.586;2023-04-15T07:07:40;31.73;;;20.23;;
47866;SDS011;33628;50.806;11.586;2023-04-15T07:10:09;22.80;;;16.20;;
47866;SDS011;33628;50.806;11.586;2023-04-15T07:12:36;23.35;;;16.10;;
47866;SDS011;33628;50.806;11.586;2023-04-15T07:15:03;22.92;;;16.60;;
47866;SDS011;33628;50.806;11.586;2023-04-15T07:17:31;16.88;;;12.65;;
47866;SDS011;33628;50.806;11.586;2023-04-15T07:19:58;19.42;;;13.98;;
47866;SDS011;33628;50.806;11.586;2023-04-15T07:22:24;22.17;;;14.25;;
47866;SDS011;33628;50.806;11.586;2023-04-15T07:24:51;19.98;;;13.48;;
47866;SDS011;33628;50.806;11.586;2023-04-15T07:27:19;19.48;;;13.13;;
47866;SDS011;33628;50.806;11.586;2023-04-15T07:29:46;16.23;;;11.40;;
47866;SDS011;33628;50.806;11.586;2023-04-15T07:32:13;14.35;;;10.98;;
47866;SDS011;33628;50.806;11.586;2023-04-15T07:34:39;14.60;;;10.93;;
47866;SDS011;33628;50.806;11.586;2023-04-15T07:37:06;17.95;;;11.95;;
47866;SDS011;33628;50.806;11.586;2023-04-15T07:39:33;17.05;;;12.57;;
47866;SDS011;33628;50.806;11.586;2023-04-15T07:42:00;14.30;;;11.32;;
47866;SDS011;33628;50.806;11.586;2023-04-15T07:44:28;14.43;;;9.98;;
47866;SDS011;33628;50.806;11.586;2023-04-15T07:46:55;11.43;;;9.38;;
47866;SDS011;33628;50.806;11.586;2023-04-15T07:49:22;13.18;;;9.73;;
47866;SDS011;33628;50.806;11.586;2023-04-15T07:51:52;14.25;;;10.50;;
47866;SDS011;33628;50.806;11.586;2023-04-15T07:54:18;17.25;;;11.65;;
47866;SDS011;33628;50.806;11.586;2023-04-15T07:56:45;12.38;;;9.10;;
47866;SDS011;33628;50.806;11.586;2023-04-15T07:59:16;12.27;;;9.38;;
47866;SDS011;33628;50.806;11.586;2023-04-15T08:01:44;13.05;;;9.82;;
47866;SDS011;33628;50.806;11.586;2023-04-15T08:04:11;18.40;;;11.32;;
47866;SDS011;33628;50.806;11.586;2023-04-15T08:06:38;12.68;;;9.30;;
47866;SDS011;33628;50.806;11.586;2023-04-15T08:09:05;9.10;;;6.85;;
47866;SDS011;33628;50.806;11.586;2023-04-15T08:11:32;8.98;;;6.90;;
47866;SDS011;33628;50.806;11.586;2023-04-15T08:13:59;9.23;;;6.68;;
47866;SDS011;33628;50.806;11.586;2023-04-15T08:16:26;10.63;;;6.80;;
47866;SDS011;33628;50.806;11.586;2023-04-15T08:18:55;9.55;;;7.43;;
47866;SDS011;33628;50.806;11.586;2023-04-15T08:21:21;9.95;;;7.63;;
47866;SDS011;33628;50.806;11.586;2023-04-15T08:23:49;8.60;;;6.25;;
47866;SDS011;33628;50.806;11.586;2023-04-15T08:26:17;8.70;;;6.25;;
47866;SDS011;33628;50.806;11.586;2023-04-15T08:28:44;14.10;;;7.82;;
47866;SDS011;33628;50.806;11.586;2023-04-15T08:31:11;7.72;;;6.45;;
47866;SDS011;33628;50.806;11.586;2023-04-15T08:33:38;8.77;;;7.22;;
47866;SDS011;33628;50.806;11.586;2023-04-15T08:36:06;8.68;;;6.57;;
47866;SDS011;33628;50.806;11.586;2023-04-15T08:38:33;7.32;;;6.13;;
47866;SDS011;33628;50.806;11.586;2023-04-15T08:41:01;8.05;;;5.88;;
47866;SDS011;33628;50.806;11.586;2023-04-15T08:43:32;9.07;;;7.07;;
47866;SDS011;33628;50.806;11.586;2023-04-15T08:46:00;8.90;;;6.32;;
47866;SDS011;33628;50.806;11.586;2023-04-15T08:48:27;10.10;;;6.82;;
47866;SDS011;33628;50.806;11.586;2023-04-15T08:50:54;8.63;;;6.30;;
47866;SDS011;33628;50.806;11.586;2023-04-15T08:53:22;8.35;;;6.40;;
47866;SDS011;33628;50.806;11.586;2023-04-15T08:55:50;8.93;;;6.95;;
47866;SDS011;33628;50.806;11.586;2023-04-15T08:58:18;7.40;;;6.22;;
47866;SDS011;33628;50.806;11.586;2023-04-15T09:00:45;6.95;;;5.97;;
47866;SDS011;33628;50.806;11.586;2023-04-15T09:03:13;9.77;;;7.25;;
47866;SDS011;33628;50.806;11.586;2023-04-15T09:05:40;7.20;;;5.60;;
47866;SDS011;33628;50.806;11.586;2023-04-15T09:08:08;7.57;;;6.15;;
47866;SDS011;33628;50.806;11.586;2023-04-15T09:10:36;6.70;;;6.00;;
47866;SDS011;33628;50.806;11.586;2023-04-15T09:13:02;7.57;;;6.45;;
47866;SDS011;33628;50.806;11.586;2023-04-15T09:15:29;10.95;;;8.30;;
47866;SDS011;33628;50.806;11.586;2023-04-15T09:17:57;7.78;;;5.88;;
47866;SDS011;33628;50.806;11.586;2023-04-15T09:20:24;6.20;;;5.03;;
47866;SDS011;33628;50.806;11.586;2023-04-15T09:22:52;8.52;;;6.55;;
47866;SDS011;33628;50.806;11.586;2023-04-15T09:25:25;5.75;;;5.07;;
47866;SDS011;33628;50.806;11.586;2023-04-15T09:27:58;5.60;;;4.95;;
47866;SDS011;33628;50.806;11.586;2023-04-15T09:30:26;5.47;;;4.80;;
47866;SDS011;33628;50.806;11.586;2023-04-15T09:32:54;6.93;;;5.55;;
47866;SDS011;33628;50.806;11.586;2023-04-15T09:35:21;9.18;;;6.30;;
47866;SDS011;33628;50.806;11.586;2023-04-15T09:37:49;6.13;;;5.28;;
47866;SDS011;33628;50.806;11.586;2023-04-15T09:40:29;5.93;;;5.00;;
47866;SDS011;33628;50.806;11.586;2023-04-15T09:42:59;6.28;;;5.00;;
47866;SDS011;33628;50.806;11.586;2023-04-15T09:45:27;6.95;;;5.40;;
47866;SDS011;33628;50.806;11.586;2023-04-15T09:47:54;11.85;;;10.02;;
47866;SDS011;33628;50.806;11.586;2023-04-15T09:50:22;6.25;;;5.28;;
47866;SDS011;33628;50.806;11.586;2023-04-15T09:52:53;4.72;;;4.13;;
47866;SDS011;33628;50.806;11.586;2023-04-15T09:55:20;4.90;;;4.13;;
47866;SDS011;33628;50.806;11.586;2023-04-15T09:57:47;6.13;;;3.63;;
47866;SDS011;33628;50.806;11.586;2023-04-15T10:00:15;5.68;;;3.85;;
47866;SDS011;33628;50.806;11.586;2023-04-15T10:02:42;4.30;;;3.67;;
47866;SDS011;33628;50.806;11.586;2023-04-15T10:05:09;4.10;;;3.10;;
47866;SDS011;33628;50.806;11.586;2023-04-15T10:07:37;12.73;;;7.30;;
47866;SDS011;33628;50.806;11.586;2023-04-15T10:10:06;7.40;;;5.13;;
47866;SDS011;33628;50.806;11.586;2023-04-15T10:12:34;3.97;;;3.25;;
47866;SDS011;33628;50.806;11.586;2023-04-15T10:15:04;3.70;;;2.75;;
47866;SDS011;33628;50.806;11.586;2023-04-15T10:17:33;2.88;;;2.47;;
47866;SDS011;33628;50.806;11.586;2023-04-15T10:20:02;2.70;;;2.20;;
47866;SDS011;33628;50.806;11.586;2023-04-15T10:22:30;3.60;;;2.40;;
47866;SDS011;33628;50.806;11.586;2023-04-15T10:24:58;3.03;;;2.00;;
47866;SDS011;33628;50.806;11.586;2023-04-15T10:27:26;2.50;;;2.30;;
47866;SDS011;33628;50.806;11.586;2023-04-15T10:29:53;5.72;;;2.50;;
47866;SDS011;33628;50.806;11.586;2023-04-15T10:32:20;4.63;;;2.20;;
47866;SDS011;33628;50.806;11.586;2023-04-15T10:34:49;3.22;;;2.42;;
47866;SDS011;33628;50.806;11.586;2023-04-15T10:37:20;2.63;;;2.15;;
47866;SDS011;33628;50.806;11.586;2023-04-15T10:39:47;2.97;;;2.10;;
47866;SDS011;33628;50.806;11.586;2023-04-15T10:42:14;2.40;;;1.70;;
47866;SDS011;33628;50.806;11.586;2023-04-15T10:44:42;1.48;;;1.23;;
47866;SDS011;33628;50.806;11.586;2023-04-15T10:47:10;2.80;;;1.77;;
47866;SDS011;33628;50.806;11.586;2023-04-15T10:49:42;2.03;;;1.58;;
47866;SDS011;33628;50.806;11.586;2023-04-15T10:52:11;2.38;;;1.90;;
47866;SDS011;33628;50.806;11.586;2023-04-15T10:54:40;1.55;;;1.30;;
47866;SDS011;33628;50.806;11.586;2023-04-15T10:57:07;1.30;;;1.20;;
47866;SDS011;33628;50.806;11.586;2023-04-15T11:02:44;2.30;;;1.48;;
47866;SDS011;33628;50.806;11.586;2023-04-15T11:05:12;2.28;;;1.60;;
47866;SDS011;33628;50.806;11.586;2023-04-15T11:07:46;2.53;;;1.58;;
47866;SDS011;33628;50.806;11.586;2023-04-15T11:13:18;1.50;;;1.30;;
47866;SDS011;33628;50.806;11.586;2023-04-15T11:15:54;2.00;;;1.50;;
47866;SDS011;33628;50.806;11.586;2023-04-15T11:18:23;2.53;;;1.90;;
47866;SDS011;33628;50.806;11.586;2023-04-15T11:20:52;1.70;;;1.35;;
47866;SDS011;33628;50.806;11.586;2023-04-15T11:23:27;2.67;;;1.80;;
47866;SDS011;33628;50.806;11.586;2023-04-15T11:25:56;3.20;;;1.50;;
47866;SDS011;33628;50.806;11.586;2023-04-15T11:28:24;1.83;;;1.35;;
47866;SDS011;33628;50.806;11.586;2023-04-15T11:30:52;4.00;;;2.42;;
47866;SDS011;33628;50.806;11.586;2023-04-15T11:33:20;2.10;;;1.70;;
47866;SDS011;33628;50.806;11.586;2023-04-15T11:35:50;3.03;;;1.52;;
47866;SDS011;33628;50.806;11.586;2023-04-15T11:38:19;2.20;;;1.95;;
47866;SDS011;33628;50.806;11.586;2023-04-15T11:40:47;2.08;;;1.45;;
47866;SDS011;33628;50.806;11.586;2023-04-15T11:43:14;1.40;;;1.27;;
47866;SDS011;33628;50.806;11.586;2023-04-15T11:45:48;4.82;;;3.28;;
47866;SDS011;33628;50.806;11.586;2023-04-15T11:48:16;4.25;;;2.90;;
47866;SDS011;33628;50.806;11.586;2023-04-15T11:50:43;3.28;;;2.63;;
47866;SDS011;33628;50.806;11.586;2023-04-15T11:53:11;3.70;;;2.90;;
47866;SDS011;33628;50.806;11.586;2023-04-15T11:55:42;2.20;;;2.00;;
47866;SDS011;33628;50.806;11.586;2023-04-15T11:58:11;3.80;;;1.70;;
47866;SDS011;33628;50.806;11.586;2023-04-15T12:00:40;4.38;;;2.20;;
47866;SDS011;33628;50.806;11.586;2023-04-15T12:03:12;1.80;;;1.50;;
47866;SDS011;33628;50.806;11.586;2023-04-15T12:09:00;2.25;;;1.80;;
47866;SDS011;33628;50.806;11.586;2023-04-15T12:11:30;2.63;;;1.75;;
47866;SDS011;33628;50.806;11.586;2023-04-15T12:14:03;3.17;;;2.00;;
47866;SDS011;33628;50.806;11.586;2023-04-15T12:16:32;3.10;;;1.70;;
47866;SDS011;33628;50.806;11.586;2023-04-15T12:18:59;3.40;;;1.90;;
47866;SDS011;33628;50.806;11.586;2023-04-15T12:21:33;2.03;;;1.70;;
47866;SDS011;33628;50.806;11.586;2023-04-15T12:24:01;1.60;;;1.30;;
47866;SDS011;33628;50.806;11.586;2023-04-15T12:26:30;1.75;;;1.35;;
47866;SDS011;33628;50.806;11.586;2023-04-15T12:28:59;3.00;;;1.65;;
47866;SDS011;33628;50.806;11.586;2023-04-15T12:31:28;1.75;;;1.35;;
47866;SDS011;33628;50.806;11.586;2023-04-15T12:33:55;1.40;;;1.27;;
47866;SDS011;33628;50.806;11.586;2023-04-15T12:36:22;2.03;;;1.50;;
47866;SDS011;33628;50.806;11.586;2023-04-15T12:38:49;1.55;;;1.30;;
47866;SDS011;33628;50.806;11.586;2023-04-15T12:41:15;2.10;;;1.30;;
47866;SDS011;33628;50.806;11.586;2023-04-15T12:43:44;1.65;;;1.50;;
47866;SDS011;33628;50.806;11.586;2023-04-15T12:46:11;1.88;;;1.60;;
47866;SDS011;33628;50.806;11.586;2023-04-15T12:48:40;2.22;;;1.48;;
47866;SDS011;33628;50.806;11.586;2023-04-15T12:51:07;1.63;;;1.40;;
47866;SDS011;33628;50.806;11.586;2023-04-15T12:53:34;1.38;;;1.27;;
47866;SDS011;33628;50.806;11.586;2023-04-15T12:56:02;1.98;;;1.60;;
47866;SDS011;33628;50.806;11.586;2023-04-15T12:58:28;2.38;;;1.77;;
47866;SDS011;33628;50.806;11.586;2023-04-15T13:00:55;1.55;;;1.40;;
47866;SDS011;33628;50.806;11.586;2023-04-15T13:03:22;1.98;;;1.38;;
47866;SDS011;33628;50.806;11.586;2023-04-15T13:05:50;1.52;;;1.27;;
47866;SDS011;33628;50.806;11.586;2023-04-15T13:08:17;1.88;;;1.20;;
47866;SDS011;33628;50.806;11.586;2023-04-15T13:10:44;1.90;;;1.67;;
47866;SDS011;33628;50.806;11.586;2023-04-15T13:13:10;2.15;;;1.58;;
47866;SDS011;33628;50.806;11.586;2023-04-15T13:15:37;3.28;;;1.60;;
47866;SDS011;33628;50.806;11.586;2023-04-15T13:18:05;1.50;;;1.30;;
47866;SDS011;33628;50.806;11.586;2023-04-15T13:20:32;1.92;;;1.65;;
47866;SDS011;33628;50.806;11.586;2023-04-15T13:23:00;2.08;;;1.55;;
47866;SDS011;33628;50.806;11.586;2023-04-15T13:25:26;2.45;;;1.63;;
47866;SDS011;33628;50.806;11.586;2023-04-15T13:27:53;2.72;;;2.15;;
47866;SDS011;33628;50.806;11.586;2023-04-15T13:30:19;2.45;;;2.00;;
47866;SDS011;33628;50.806;11.586;2023-04-15T13:32:46;2.53;;;2.10;;
47866;SDS011;33628;50.806;11.586;2023-04-15T13:35:13;3.10;;;1.77;;
47866;SDS011;33628;50.806;11.586;2023-04-15T13:37:39;3.05;;;1.60;;
47866;SDS011;33628;50.806;11.586;2023-04-15T13:40:08;3.42;;;1.27;;
47866;SDS011;33628;50.806;11.586;2023-04-15T13:42:37;2.03;;;1.60;;
47866;SDS011;33628;50.806;11.586;2023-04-15T13:45:04;2.05;;;1.60;;
47866;SDS011;33628;50.806;11.586;2023-04-15T13:47:32;1.90;;;1.50;;
47866;SDS011;33628;50.806;11.586;2023-04-15T13:49:59;2.58;;;2.15;;
47866;SDS011;33628;50.806;11.586;2023-04-15T13:52:25;2.10;;;1.90;;
47866;SDS011;33628;50.806;11.586;2023-04-15T13:54:52;2.17;;;1.80;;
47866;SDS011;33628;50.806;11.586;2023-04-15T13:57:20;1.90;;;1.42;;
47866;SDS011;33628;50.806;11.586;2023-04-15T13:59:47;2.45;;;1.80;;
47866;SDS011;33628;50.806;11.586;2023-04-15T14:02:13;2.10;;;1.90;;
47866;SDS011;33628;50.806;11.586;2023-04-15T14:04:42;2.10;;;1.90;;
47866;SDS011;33628;50.806;11.586;2023-04-15T14:07:09;3.13;;;2.17;;
47866;SDS011;33628;50.806;11.586;2023-04-15T14:09:36;2.45;;;2.00;;
47866;SDS011;33628;50.806;11.586;2023-04-15T14:12:03;1.80;;;1.40;;
47866;SDS011;33628;50.806;11.586;2023-04-15T14:14:31;1.70;;;1.33;;
47866;SDS011;33628;50.806;11.586;2023-04-15T14:16:58;2.10;;;1.88;;
47866;SDS011;33628;50.806;11.586;2023-04-15T14:19:25;2.15;;;1.77;;
47866;SDS011;33628;50.806;11.586;2023-04-15T14:21:51;3.65;;;1.10;;
47866;SDS011;33628;50.806;11.586;2023-04-15T14:24:18;4.80;;;3.63;;
47866;SDS011;33628;50.806;11.586;2023-04-15T14:26:45;4.05;;;2.90;;
47866;SDS011;33628;50.806;11.586;2023-04-15T14:29:11;3.53;;;3.00;;
47866;SDS011;33628;50.806;11.586;2023-04-15T14:31:39;4.35;;;3.50;;
47866;SDS011;33628;50.806;11.586;2023-04-15T14:34:06;4.20;;;3.15;;
47866;SDS011;33628;50.806;11.586;2023-04-15T14:36:33;7.32;;;6.63;;